SHT8B EGLL-EGPH
Flight info
| Callsign | SHT8B |
|---|---|
| Flight time | 0h 58m |
| Altitude | 32000 |
| Route | ULTIB1J ULTIB T420 TNT UN57 POL UN601 RIBEL DCT INPIP INPIP1E |
| Aircraft | A320/M-SDE3FGHIKRWXY/S |
Departure
| Time | 2026-04-20 13:04 |
|---|---|
| Airport | London Heathrow Airport (EGLL) |
Arrival
| Time | 2026-04-20 14:03 |
|---|---|
| Airport | Edinburgh Airport (EGPH) |
| Time | Latitude | Longitude | Altitude | Speed | Heading |
|---|---|---|---|---|---|
| 2026-04-20 12:21 | 51.47402 | -0.48831 | 89 ft | 0 kts | 180° |
| 2026-04-20 12:50 | 51.47404 | -0.48832 | 87 ft | 1 kts | 180° |
| 2026-04-20 12:50 | 51.47420 | -0.48832 | 89 ft | 3 kts | 179° |
| 2026-04-20 12:50 | 51.47440 | -0.48832 | 87 ft | 3 kts | 179° |
| 2026-04-20 12:50 | 51.47460 | -0.48832 | 87 ft | 3 kts | 179° |
| 2026-04-20 12:51 | 51.47477 | -0.48836 | 89 ft | 3 kts | 130° |
| 2026-04-20 12:51 | 51.47486 | -0.48862 | 88 ft | 2 kts | 100° |
| 2026-04-20 12:51 | 51.47489 | -0.48888 | 88 ft | 3 kts | 118° |
| 2026-04-20 12:51 | 51.47492 | -0.48899 | 88 ft | 0 kts | 119° |
| 2026-04-20 12:54 | 51.47492 | -0.48898 | 87 ft | 1 kts | 119° |
| 2026-04-20 12:54 | 51.47487 | -0.48873 | 89 ft | 4 kts | 102° |
| 2026-04-20 12:55 | 51.47483 | -0.48806 | 88 ft | 8 kts | 89° |
| 2026-04-20 12:55 | 51.47486 | -0.48700 | 89 ft | 11 kts | 88° |
| 2026-04-20 12:55 | 51.47487 | -0.48567 | 88 ft | 11 kts | 89° |
| 2026-04-20 12:55 | 51.47456 | -0.48480 | 89 ft | 10 kts | 163° |
| 2026-04-20 12:56 | 51.47374 | -0.48476 | 87 ft | 13 kts | 179° |
| 2026-04-20 12:56 | 51.47274 | -0.48475 | 87 ft | 16 kts | 180° |
| 2026-04-20 12:56 | 51.47160 | -0.48475 | 87 ft | 16 kts | 180° |
| 2026-04-20 12:56 | 51.47037 | -0.48474 | 87 ft | 19 kts | 180° |
| 2026-04-20 12:57 | 51.46907 | -0.48472 | 89 ft | 18 kts | 178° |
| 2026-04-20 12:57 | 51.46847 | -0.48471 | 68 ft | 3 kts | 180° |
| 2026-04-20 12:57 | 51.46844 | -0.48471 | 71 ft | 0 kts | 180° |
| 2026-04-20 12:58 | 51.46843 | -0.48471 | 72 ft | 1 kts | 180° |
| 2026-04-20 12:58 | 51.46827 | -0.48471 | 88 ft | 4 kts | 180° |
| 2026-04-20 12:58 | 51.46790 | -0.48471 | 90 ft | 7 kts | 180° |
| 2026-04-20 12:58 | 51.46734 | -0.48470 | 87 ft | 10 kts | 179° |
| 2026-04-20 12:59 | 51.46657 | -0.48468 | 87 ft | 12 kts | 180° |
| 2026-04-20 12:59 | 51.46602 | -0.48468 | 88 ft | 3 kts | 180° |
| 2026-04-20 13:02 | 51.46595 | -0.48468 | 88 ft | 2 kts | 180° |
| 2026-04-20 13:02 | 51.46570 | -0.48468 | 88 ft | 6 kts | 180° |
| 2026-04-20 13:02 | 51.46511 | -0.48468 | 89 ft | 10 kts | 179° |
| 2026-04-20 13:02 | 51.46476 | -0.48408 | 89 ft | 7 kts | 89° |
| 2026-04-20 13:03 | 51.46476 | -0.48402 | 89 ft | 0 kts | 89° |
| 2026-04-20 13:03 | 51.46476 | -0.48399 | 89 ft | 6 kts | 89° |
| 2026-04-20 13:03 | 51.46480 | -0.47893 | 87 ft | 82 kts | 90° |
| 2026-04-20 13:03 | 51.46487 | -0.46652 | 93 ft | 138 kts | 89° |
| 2026-04-20 13:04 | 51.46488 | -0.44938 | 407 ft | 157 kts | 89° |
| 2026-04-20 13:04 | 51.46479 | -0.43189 | 1186 ft | 157 kts | 87° |
| 2026-04-20 13:04 | 51.46522 | -0.41423 | 1805 ft | 170 kts | 80° |
| 2026-04-20 13:04 | 51.46884 | -0.39513 | 2149 ft | 192 kts | 62° |
| 2026-04-20 13:05 | 51.47709 | -0.37656 | 2631 ft | 217 kts | 49° |
| 2026-04-20 13:05 | 51.48761 | -0.35731 | 3262 ft | 238 kts | 50° |
| 2026-04-20 13:05 | 51.49852 | -0.33665 | 4213 ft | 246 kts | 50° |
| 2026-04-20 13:05 | 51.50947 | -0.31564 | 5241 ft | 250 kts | 51° |
| 2026-04-20 13:06 | 51.52069 | -0.29381 | 6260 ft | 254 kts | 53° |
| 2026-04-20 13:06 | 51.52959 | -0.26903 | 7220 ft | 260 kts | 67° |
| 2026-04-20 13:06 | 51.53602 | -0.24155 | 8114 ft | 266 kts | 61° |
| 2026-04-20 13:06 | 51.54878 | -0.22010 | 8928 ft | 273 kts | 29° |
| 2026-04-20 13:07 | 51.56682 | -0.21236 | 9210 ft | 275 kts | 0° |
| 2026-04-20 13:07 | 51.58593 | -0.21668 | 10009 ft | 278 kts | 347° |
| 2026-04-20 13:07 | 51.60487 | -0.22533 | 10691 ft | 293 kts | 340° |
| 2026-04-20 13:07 | 51.62361 | -0.24099 | 11007 ft | 316 kts | 327° |
| 2026-04-20 13:08 | 51.64177 | -0.26212 | 11633 ft | 325 kts | 325° |
| 2026-04-20 13:08 | 51.66075 | -0.28226 | 12451 ft | 328 kts | 328° |
| 2026-04-20 13:08 | 51.68045 | -0.30123 | 13300 ft | 331 kts | 329° |
| 2026-04-20 13:08 | 51.70055 | -0.31984 | 14124 ft | 334 kts | 329° |
| 2026-04-20 13:09 | 51.72058 | -0.33832 | 14830 ft | 337 kts | 329° |
| 2026-04-20 13:09 | 51.74102 | -0.35737 | 15535 ft | 340 kts | 329° |
| 2026-04-20 13:09 | 51.76158 | -0.37682 | 16225 ft | 344 kts | 328° |
| 2026-04-20 13:09 | 51.78224 | -0.39664 | 16867 ft | 347 kts | 328° |
| 2026-04-20 13:10 | 51.80305 | -0.41677 | 17578 ft | 349 kts | 328° |
| 2026-04-20 13:10 | 51.82402 | -0.43712 | 18293 ft | 353 kts | 328° |
| 2026-04-20 13:10 | 51.84488 | -0.45738 | 18954 ft | 355 kts | 327° |
| 2026-04-20 13:10 | 51.86622 | -0.47814 | 19654 ft | 357 kts | 327° |
| 2026-04-20 13:11 | 51.88755 | -0.49888 | 20392 ft | 357 kts | 327° |
| 2026-04-20 13:11 | 51.90887 | -0.51965 | 21143 ft | 358 kts | 326° |
| 2026-04-20 13:11 | 51.93022 | -0.54050 | 21860 ft | 358 kts | 326° |
| 2026-04-20 13:11 | 51.94434 | -0.55429 | 22323 ft | 359 kts | 326° |
| 2026-04-20 13:12 | 51.97278 | -0.58207 | 23254 ft | 360 kts | 326° |
| 2026-04-20 13:12 | 51.99435 | -0.60314 | 23902 ft | 362 kts | 326° |
| 2026-04-20 13:12 | 52.01595 | -0.62424 | 24406 ft | 364 kts | 326° |
| 2026-04-20 13:12 | 52.03036 | -0.63832 | 24729 ft | 365 kts | 326° |
| 2026-04-20 13:13 | 52.05222 | -0.65974 | 25207 ft | 367 kts | 325° |
| 2026-04-20 13:13 | 52.08141 | -0.68845 | 25830 ft | 370 kts | 325° |
| 2026-04-20 13:13 | 52.09631 | -0.70315 | 26134 ft | 372 kts | 325° |
| 2026-04-20 13:13 | 52.11828 | -0.72478 | 26577 ft | 374 kts | 325° |
| 2026-04-20 13:14 | 52.14065 | -0.74679 | 27022 ft | 377 kts | 325° |
| 2026-04-20 13:14 | 52.16328 | -0.76907 | 27449 ft | 379 kts | 325° |
| 2026-04-20 13:14 | 52.18592 | -0.79136 | 27874 ft | 382 kts | 325° |
| 2026-04-20 13:14 | 52.20883 | -0.81400 | 28294 ft | 385 kts | 325° |
| 2026-04-20 13:15 | 52.23152 | -0.83652 | 28712 ft | 388 kts | 325° |
| 2026-04-20 13:15 | 52.25470 | -0.85958 | 29107 ft | 391 kts | 324° |
| 2026-04-20 13:15 | 52.27803 | -0.88279 | 29502 ft | 393 kts | 324° |
| 2026-04-20 13:15 | 52.30150 | -0.90616 | 29894 ft | 396 kts | 325° |
| 2026-04-20 13:16 | 52.32526 | -0.92980 | 30312 ft | 400 kts | 324° |
| 2026-04-20 13:16 | 52.34885 | -0.95330 | 30621 ft | 403 kts | 325° |
| 2026-04-20 13:16 | 52.37294 | -0.97730 | 30893 ft | 406 kts | 325° |
| 2026-04-20 13:16 | 52.39721 | -1.00154 | 31176 ft | 410 kts | 325° |
| 2026-04-20 13:17 | 52.42162 | -1.02594 | 31450 ft | 413 kts | 325° |
| 2026-04-20 13:17 | 52.44622 | -1.05058 | 31795 ft | 414 kts | 325° |
| 2026-04-20 13:17 | 52.47083 | -1.07531 | 32160 ft | 415 kts | 325° |
| 2026-04-20 13:18 | 52.51971 | -1.12440 | 32269 ft | 404 kts | 326° |
| 2026-04-20 13:18 | 52.56726 | -1.17211 | 32261 ft | 401 kts | 325° |
| 2026-04-20 13:19 | 52.61453 | -1.21987 | 32249 ft | 401 kts | 325° |
| 2026-04-20 13:19 | 52.66218 | -1.26812 | 32249 ft | 401 kts | 325° |
| 2026-04-20 13:20 | 52.70978 | -1.31651 | 32249 ft | 402 kts | 326° |
| 2026-04-20 13:20 | 52.75715 | -1.36471 | 32301 ft | 402 kts | 326° |
| 2026-04-20 13:21 | 52.80489 | -1.41348 | 32299 ft | 403 kts | 326° |
| 2026-04-20 13:21 | 52.85236 | -1.46206 | 32298 ft | 403 kts | 326° |
| 2026-04-20 13:22 | 52.90021 | -1.51114 | 32298 ft | 404 kts | 326° |
| 2026-04-20 13:22 | 52.94805 | -1.56035 | 32296 ft | 405 kts | 326° |
| 2026-04-20 13:23 | 52.99598 | -1.60979 | 32295 ft | 406 kts | 326° |
| 2026-04-20 13:23 | 53.04399 | -1.65931 | 32289 ft | 407 kts | 328° |
| 2026-04-20 13:24 | 53.09599 | -1.69611 | 32290 ft | 410 kts | 337° |
| 2026-04-20 13:24 | 53.14947 | -1.72906 | 32295 ft | 411 kts | 337° |
| 2026-04-20 13:25 | 53.20317 | -1.76231 | 32297 ft | 411 kts | 337° |
| 2026-04-20 13:25 | 53.25685 | -1.79579 | 32296 ft | 412 kts | 337° |
| 2026-04-20 13:26 | 53.31063 | -1.82931 | 32298 ft | 413 kts | 337° |
| 2026-04-20 13:26 | 53.36425 | -1.86280 | 32296 ft | 413 kts | 337° |
| 2026-04-20 13:27 | 53.41809 | -1.89656 | 32300 ft | 414 kts | 337° |
| 2026-04-20 13:27 | 53.47209 | -1.93066 | 32304 ft | 414 kts | 337° |
| 2026-04-20 13:28 | 53.52610 | -1.96488 | 32299 ft | 415 kts | 338° |
| 2026-04-20 13:28 | 53.57975 | -1.99890 | 32300 ft | 415 kts | 338° |
| 2026-04-20 13:29 | 53.63393 | -2.03321 | 32302 ft | 415 kts | 338° |
| 2026-04-20 13:29 | 53.68804 | -2.06761 | 32308 ft | 416 kts | 338° |
| 2026-04-20 13:30 | 53.74198 | -2.10199 | 32309 ft | 416 kts | 338° |
| 2026-04-20 13:30 | 53.79599 | -2.13785 | 32311 ft | 416 kts | 336° |
| 2026-04-20 13:31 | 53.84964 | -2.17504 | 32313 ft | 417 kts | 336° |
| 2026-04-20 13:31 | 53.90330 | -2.21220 | 32313 ft | 417 kts | 336° |
| 2026-04-20 13:32 | 53.95698 | -2.24898 | 32312 ft | 417 kts | 337° |
| 2026-04-20 13:32 | 54.01092 | -2.28599 | 32319 ft | 417 kts | 337° |
| 2026-04-20 13:33 | 54.06362 | -2.32225 | 32307 ft | 394 kts | 337° |
| 2026-04-20 13:33 | 54.11330 | -2.35656 | 32315 ft | 388 kts | 337° |
| 2026-04-20 13:33 | 54.13881 | -2.37427 | 32314 ft | 402 kts | 337° |
| 2026-04-20 13:34 | 54.16513 | -2.39259 | 32310 ft | 412 kts | 337° |
| 2026-04-20 13:34 | 54.21882 | -2.42990 | 32314 ft | 417 kts | 337° |
| 2026-04-20 13:35 | 54.27241 | -2.46729 | 32315 ft | 419 kts | 337° |
| 2026-04-20 13:35 | 54.32557 | -2.50440 | 32313 ft | 397 kts | 337° |
| 2026-04-20 13:35 | 54.35071 | -2.52195 | 32315 ft | 383 kts | 337° |
| 2026-04-20 13:36 | 54.37480 | -2.53885 | 32315 ft | 376 kts | 337° |
| 2026-04-20 13:36 | 54.42307 | -2.57287 | 32316 ft | 373 kts | 337° |
| 2026-04-20 13:37 | 54.47031 | -2.60617 | 32319 ft | 358 kts | 337° |
| 2026-04-20 13:37 | 54.49301 | -2.62220 | 32319 ft | 347 kts | 337° |
| 2026-04-20 13:37 | 54.51519 | -2.63791 | 32319 ft | 341 kts | 337° |
| 2026-04-20 13:38 | 54.55864 | -2.66872 | 32317 ft | 338 kts | 337° |
| 2026-04-20 13:38 | 54.58055 | -2.68430 | 31983 ft | 349 kts | 337° |
| 2026-04-20 13:38 | 54.60387 | -2.70088 | 31736 ft | 372 kts | 337° |
| 2026-04-20 13:38 | 54.62839 | -2.71830 | 31435 ft | 386 kts | 337° |
| 2026-04-20 13:39 | 54.65334 | -2.73602 | 30938 ft | 388 kts | 337° |
| 2026-04-20 13:39 | 54.67824 | -2.75378 | 30429 ft | 387 kts | 337° |
| 2026-04-20 13:39 | 54.70311 | -2.77157 | 29847 ft | 385 kts | 337° |
| 2026-04-20 13:39 | 54.72741 | -2.78898 | 29350 ft | 382 kts | 337° |
| 2026-04-20 13:40 | 54.75191 | -2.80652 | 28848 ft | 379 kts | 338° |
| 2026-04-20 13:40 | 54.77622 | -2.82388 | 28354 ft | 377 kts | 338° |
| 2026-04-20 13:40 | 54.80048 | -2.84123 | 27853 ft | 375 kts | 338° |
| 2026-04-20 13:40 | 54.82459 | -2.85852 | 27351 ft | 375 kts | 337° |
| 2026-04-20 13:41 | 54.84839 | -2.87565 | 26868 ft | 374 kts | 337° |
| 2026-04-20 13:41 | 54.87247 | -2.89303 | 26376 ft | 373 kts | 337° |
| 2026-04-20 13:41 | 54.89651 | -2.91042 | 25861 ft | 376 kts | 337° |
| 2026-04-20 13:41 | 54.92088 | -2.92809 | 25326 ft | 381 kts | 337° |
| 2026-04-20 13:42 | 54.94535 | -2.94585 | 24798 ft | 380 kts | 337° |
| 2026-04-20 13:42 | 54.99403 | -2.98106 | 23704 ft | 381 kts | 337° |
| 2026-04-20 13:42 | 55.01855 | -2.99876 | 23140 ft | 379 kts | 337° |
| 2026-04-20 13:43 | 55.04290 | -3.01642 | 22616 ft | 377 kts | 337° |
| 2026-04-20 13:43 | 55.06679 | -3.03384 | 22095 ft | 376 kts | 337° |
| 2026-04-20 13:43 | 55.09087 | -3.05143 | 21575 ft | 374 kts | 337° |
| 2026-04-20 13:43 | 55.11483 | -3.06894 | 21053 ft | 372 kts | 337° |
| 2026-04-20 13:44 | 55.13861 | -3.08632 | 20534 ft | 369 kts | 337° |
| 2026-04-20 13:44 | 55.16234 | -3.10369 | 19907 ft | 370 kts | 337° |
| 2026-04-20 13:44 | 55.18607 | -3.12109 | 19073 ft | 377 kts | 337° |
| 2026-04-20 13:44 | 55.21041 | -3.13900 | 18426 ft | 378 kts | 337° |
| 2026-04-20 13:45 | 55.23454 | -3.15677 | 17891 ft | 374 kts | 337° |
| 2026-04-20 13:45 | 55.25815 | -3.17420 | 17673 ft | 361 kts | 337° |
| 2026-04-20 13:45 | 55.28087 | -3.19094 | 17538 ft | 347 kts | 337° |
| 2026-04-20 13:45 | 55.30251 | -3.20801 | 17400 ft | 334 kts | 331° |
| 2026-04-20 13:46 | 55.32178 | -3.22779 | 17072 ft | 318 kts | 330° |
| 2026-04-20 13:46 | 55.34067 | -3.24717 | 16437 ft | 312 kts | 330° |
| 2026-04-20 13:46 | 55.35933 | -3.26626 | 15760 ft | 309 kts | 330° |
| 2026-04-20 13:46 | 55.37787 | -3.28527 | 15157 ft | 309 kts | 330° |
| 2026-04-20 13:47 | 55.39636 | -3.30424 | 14824 ft | 307 kts | 330° |
| 2026-04-20 13:47 | 55.41472 | -3.32306 | 14276 ft | 304 kts | 330° |
| 2026-04-20 13:47 | 55.43290 | -3.34174 | 13648 ft | 302 kts | 330° |
| 2026-04-20 13:47 | 55.45110 | -3.36049 | 13222 ft | 301 kts | 330° |
| 2026-04-20 13:48 | 55.46893 | -3.37888 | 12862 ft | 300 kts | 330° |
| 2026-04-20 13:48 | 55.48687 | -3.39738 | 12511 ft | 298 kts | 330° |
| 2026-04-20 13:48 | 55.50472 | -3.41583 | 12154 ft | 296 kts | 330° |
| 2026-04-20 13:48 | 55.52251 | -3.43426 | 11830 ft | 295 kts | 330° |
| 2026-04-20 13:49 | 55.53987 | -3.45231 | 11680 ft | 281 kts | 330° |
| 2026-04-20 13:49 | 55.55614 | -3.46927 | 11549 ft | 262 kts | 330° |
| 2026-04-20 13:49 | 55.57122 | -3.48501 | 11323 ft | 250 kts | 330° |
| 2026-04-20 13:49 | 55.58608 | -3.50054 | 10898 ft | 246 kts | 330° |
| 2026-04-20 13:50 | 55.60074 | -3.51584 | 10453 ft | 244 kts | 330° |
| 2026-04-20 13:50 | 55.61535 | -3.53107 | 9956 ft | 242 kts | 330° |
| 2026-04-20 13:50 | 55.62984 | -3.54613 | 9462 ft | 240 kts | 330° |
| 2026-04-20 13:50 | 55.64397 | -3.56147 | 9083 ft | 233 kts | 322° |
| 2026-04-20 13:51 | 55.65502 | -3.58101 | 8728 ft | 224 kts | 315° |
| 2026-04-20 13:51 | 55.66624 | -3.60002 | 8265 ft | 222 kts | 317° |
| 2026-04-20 13:51 | 55.67768 | -3.61834 | 7789 ft | 220 kts | 317° |
| 2026-04-20 13:51 | 55.68711 | -3.63951 | 7335 ft | 218 kts | 296° |
| 2026-04-20 13:52 | 55.69317 | -3.66398 | 6885 ft | 216 kts | 290° |
| 2026-04-20 13:52 | 55.69848 | -3.68855 | 6441 ft | 215 kts | 289° |
| 2026-04-20 13:52 | 55.70360 | -3.71279 | 6205 ft | 204 kts | 289° |
| 2026-04-20 13:52 | 55.70849 | -3.73619 | 5881 ft | 201 kts | 290° |
| 2026-04-20 13:53 | 55.71382 | -3.75902 | 5630 ft | 200 kts | 300° |
| 2026-04-20 13:53 | 55.72269 | -3.77739 | 5430 ft | 199 kts | 321° |
| 2026-04-20 13:53 | 55.73385 | -3.79204 | 5259 ft | 198 kts | 326° |
| 2026-04-20 13:53 | 55.74491 | -3.80550 | 5134 ft | 188 kts | 326° |
| 2026-04-20 13:54 | 55.75555 | -3.81838 | 4969 ft | 181 kts | 326° |
| 2026-04-20 13:54 | 55.76599 | -3.83023 | 4781 ft | 174 kts | 339° |
| 2026-04-20 13:54 | 55.77752 | -3.83282 | 4630 ft | 169 kts | 7° |
| 2026-04-20 13:54 | 55.78870 | -3.82730 | 4531 ft | 166 kts | 28° |
| 2026-04-20 13:55 | 55.79784 | -3.81504 | 4456 ft | 165 kts | 50° |
| 2026-04-20 13:55 | 55.80420 | -3.79828 | 4386 ft | 163 kts | 59° |
| 2026-04-20 13:55 | 55.81015 | -3.78110 | 4315 ft | 163 kts | 59° |
| 2026-04-20 13:55 | 55.81608 | -3.76394 | 4230 ft | 162 kts | 60° |
| 2026-04-20 13:56 | 55.82199 | -3.74680 | 4149 ft | 163 kts | 60° |
| 2026-04-20 13:56 | 55.82781 | -3.72991 | 4070 ft | 162 kts | 59° |
| 2026-04-20 13:56 | 55.83370 | -3.71280 | 4000 ft | 162 kts | 60° |
| 2026-04-20 13:56 | 55.83938 | -3.69631 | 3986 ft | 148 kts | 60° |
| 2026-04-20 13:57 | 55.84460 | -3.68112 | 3939 ft | 141 kts | 60° |
| 2026-04-20 13:57 | 55.84962 | -3.66650 | 3801 ft | 134 kts | 60° |
| 2026-04-20 13:57 | 55.85446 | -3.65241 | 3646 ft | 132 kts | 60° |
| 2026-04-20 13:57 | 55.85924 | -3.63849 | 3477 ft | 132 kts | 60° |
| 2026-04-20 13:58 | 55.86392 | -3.62483 | 3292 ft | 130 kts | 60° |
| 2026-04-20 13:58 | 55.86866 | -3.61100 | 3119 ft | 130 kts | 61° |
| 2026-04-20 13:58 | 55.87335 | -3.59731 | 2952 ft | 130 kts | 60° |
| 2026-04-20 13:58 | 55.87803 | -3.58363 | 2766 ft | 129 kts | 60° |
| 2026-04-20 13:59 | 55.88268 | -3.57005 | 2580 ft | 128 kts | 60° |
| 2026-04-20 13:59 | 55.88732 | -3.55648 | 2426 ft | 128 kts | 59° |
| 2026-04-20 13:59 | 55.89189 | -3.54311 | 2233 ft | 127 kts | 60° |
| 2026-04-20 13:59 | 55.89650 | -3.52963 | 2060 ft | 128 kts | 60° |
| 2026-04-20 14:00 | 55.90109 | -3.51618 | 1876 ft | 126 kts | 60° |
| 2026-04-20 14:00 | 55.90565 | -3.50281 | 1702 ft | 127 kts | 60° |
| 2026-04-20 14:00 | 55.91025 | -3.48933 | 1525 ft | 127 kts | 61° |
| 2026-04-20 14:00 | 55.91486 | -3.47597 | 1282 ft | 126 kts | 59° |
| 2026-04-20 14:01 | 55.91940 | -3.46269 | 1070 ft | 125 kts | 60° |
| 2026-04-20 14:01 | 55.92383 | -3.44954 | 953 ft | 125 kts | 59° |
| 2026-04-20 14:01 | 55.92832 | -3.43628 | 805 ft | 126 kts | 59° |
| 2026-04-20 14:01 | 55.93282 | -3.42300 | 603 ft | 125 kts | 57° |
| 2026-04-20 14:02 | 55.93737 | -3.40984 | 419 ft | 124 kts | 59° |
| 2026-04-20 14:02 | 55.94177 | -3.39669 | 264 ft | 123 kts | 58° |
| 2026-04-20 14:02 | 55.94623 | -3.38361 | 121 ft | 123 kts | 58° |
| 2026-04-20 14:02 | 55.94997 | -3.37257 | 112 ft | 79 kts | 59° |
| 2026-04-20 14:03 | 55.95189 | -3.36688 | 112 ft | 30 kts | 59° |
| 2026-04-20 14:03 | 55.95259 | -3.36461 | 110 ft | 10 kts | 79° |
| 2026-04-20 14:03 | 55.95213 | -3.36370 | 115 ft | 9 kts | 149° |
| 2026-04-20 14:03 | 55.95179 | -3.36333 | 115 ft | 0 kts | 149° |
| 2026-04-20 14:04 | 55.95176 | -3.36330 | 113 ft | 2 kts | 149° |
| 2026-04-20 14:04 | 55.95158 | -3.36313 | 114 ft | 4 kts | 156° |
| 2026-04-20 14:04 | 55.95124 | -3.36329 | 114 ft | 7 kts | 218° |
| 2026-04-20 14:04 | 55.95083 | -3.36399 | 116 ft | 9 kts | 205° |
| 2026-04-20 14:05 | 55.95040 | -3.36384 | 115 ft | 5 kts | 172° |
| 2026-04-20 14:05 | 55.95003 | -3.36430 | 116 ft | 8 kts | 236° |
| 2026-04-20 14:05 | 55.94967 | -3.36535 | 114 ft | 12 kts | 239° |
| 2026-04-20 14:05 | 55.94927 | -3.36652 | 115 ft | 10 kts | 238° |
| 2026-04-20 14:06 | 55.94915 | -3.36686 | 113 ft | 0 kts | 238° |
| 2026-04-20 14:06 | 55.94912 | -3.36686 | 112 ft | 0 kts | 204° |
| 2026-04-20 14:06 | 55.94909 | -3.36683 | 115 ft | 0 kts | 167° |
| 2026-04-20 14:07 | 55.94904 | -3.36672 | 115 ft | 3 kts | 140° |
| 2026-04-20 14:07 | 55.94885 | -3.36644 | 115 ft | 4 kts | 141° |
| 2026-04-20 14:07 | 55.94867 | -3.36620 | 113 ft | 3 kts | 143° |
| 2026-04-20 14:07 | 55.94859 | -3.36609 | 115 ft | 0 kts | 145° |